sensor_id;sensor_type;location;lat;lon;timestamp;P1;durP1;ratioP1;P2;durP2;ratioP2
39324;SDS011;25037;49.488;9.900;2023-04-25T00:00:15;4.45;;;2.22;;
39324;SDS011;25037;49.488;9.900;2023-04-25T00:02:42;4.13;;;2.22;;
39324;SDS011;25037;49.488;9.900;2023-04-25T00:05:09;3.88;;;2.22;;
39324;SDS011;25037;49.488;9.900;2023-04-25T00:07:37;3.30;;;2.05;;
39324;SDS011;25037;49.488;9.900;2023-04-25T00:10:04;3.58;;;1.98;;
39324;SDS011;25037;49.488;9.900;2023-04-25T00:12:32;2.85;;;1.85;;
39324;SDS011;25037;49.488;9.900;2023-04-25T00:14:59;3.42;;;1.88;;
39324;SDS011;25037;49.488;9.900;2023-04-25T00:17:26;2.53;;;1.60;;
39324;SDS011;25037;49.488;9.900;2023-04-25T00:19:53;4.00;;;1.90;;
39324;SDS011;25037;49.488;9.900;2023-04-25T00:22:20;3.03;;;1.85;;
39324;SDS011;25037;49.488;9.900;2023-04-25T00:24:47;2.70;;;1.80;;
39324;SDS011;25037;49.488;9.900;2023-04-25T00:27:13;4.30;;;2.00;;
39324;SDS011;25037;49.488;9.900;2023-04-25T00:29:40;3.88;;;2.03;;
39324;SDS011;25037;49.488;9.900;2023-04-25T00:32:07;3.15;;;1.83;;
39324;SDS011;25037;49.488;9.900;2023-04-25T00:34:33;4.10;;;2.00;;
39324;SDS011;25037;49.488;9.900;2023-04-25T00:37:00;3.20;;;1.90;;
39324;SDS011;25037;49.488;9.900;2023-04-25T00:39:30;3.65;;;2.33;;
39324;SDS011;25037;49.488;9.900;2023-04-25T00:41:56;4.45;;;2.28;;
39324;SDS011;25037;49.488;9.900;2023-04-25T00:44:24;4.68;;;1.90;;
39324;SDS011;25037;49.488;9.900;2023-04-25T00:46:53;4.20;;;2.00;;
39324;SDS011;25037;49.488;9.900;2023-04-25T00:49:20;5.05;;;3.22;;
39324;SDS011;25037;49.488;9.900;2023-04-25T00:51:47;3.67;;;1.75;;
39324;SDS011;25037;49.488;9.900;2023-04-25T00:54:14;3.50;;;2.22;;
39324;SDS011;25037;49.488;9.900;2023-04-25T00:56:41;4.05;;;2.40;;
39324;SDS011;25037;49.488;9.900;2023-04-25T00:59:09;2.97;;;2.00;;
39324;SDS011;25037;49.488;9.900;2023-04-25T01:01:36;4.20;;;2.53;;
39324;SDS011;25037;49.488;9.900;2023-04-25T01:04:04;5.32;;;3.05;;
39324;SDS011;25037;49.488;9.900;2023-04-25T01:06:31;4.63;;;2.90;;
39324;SDS011;25037;49.488;9.900;2023-04-25T01:08:58;4.28;;;3.70;;
39324;SDS011;25037;49.488;9.900;2023-04-25T01:11:25;4.50;;;3.00;;
39324;SDS011;25037;49.488;9.900;2023-04-25T01:13:52;4.45;;;3.03;;
39324;SDS011;25037;49.488;9.900;2023-04-25T01:16:18;4.28;;;3.10;;
39324;SDS011;25037;49.488;9.900;2023-04-25T01:18:46;6.88;;;3.00;;
39324;SDS011;25037;49.488;9.900;2023-04-25T01:21:14;4.28;;;3.22;;
39324;SDS011;25037;49.488;9.900;2023-04-25T01:23:41;8.05;;;3.88;;
39324;SDS011;25037;49.488;9.900;2023-04-25T01:26:09;5.13;;;3.47;;
39324;SDS011;25037;49.488;9.900;2023-04-25T01:28:37;6.03;;;3.80;;
39324;SDS011;25037;49.488;9.900;2023-04-25T01:31:07;5.10;;;3.30;;
39324;SDS011;25037;49.488;9.900;2023-04-25T01:33:35;5.55;;;3.25;;
39324;SDS011;25037;49.488;9.900;2023-04-25T01:36:02;4.63;;;3.17;;
39324;SDS011;25037;49.488;9.900;2023-04-25T01:38:29;3.92;;;3.05;;
39324;SDS011;25037;49.488;9.900;2023-04-25T01:40:56;5.75;;;3.92;;
39324;SDS011;25037;49.488;9.900;2023-04-25T01:43:22;7.05;;;3.50;;
39324;SDS011;25037;49.488;9.900;2023-04-25T01:45:49;6.50;;;3.90;;
39324;SDS011;25037;49.488;9.900;2023-04-25T01:48:16;5.78;;;3.63;;
39324;SDS011;25037;49.488;9.900;2023-04-25T01:50:43;4.95;;;3.60;;
39324;SDS011;25037;49.488;9.900;2023-04-25T01:53:10;5.05;;;3.78;;
39324;SDS011;25037;49.488;9.900;2023-04-25T01:55:39;5.63;;;4.00;;
39324;SDS011;25037;49.488;9.900;2023-04-25T01:58:06;6.55;;;3.90;;
39324;SDS011;25037;49.488;9.900;2023-04-25T02:00:36;5.70;;;3.50;;
39324;SDS011;25037;49.488;9.900;2023-04-25T02:03:07;6.05;;;4.22;;
39324;SDS011;25037;49.488;9.900;2023-04-25T02:05:38;4.75;;;3.63;;
39324;SDS011;25037;49.488;9.900;2023-04-25T02:08:05;5.30;;;3.67;;
39324;SDS011;25037;49.488;9.900;2023-04-25T02:10:33;4.80;;;3.55;;
39324;SDS011;25037;49.488;9.900;2023-04-25T02:13:01;5.50;;;3.35;;
39324;SDS011;25037;49.488;9.900;2023-04-25T02:15:28;5.35;;;3.40;;
39324;SDS011;25037;49.488;9.900;2023-04-25T02:17:54;6.10;;;3.60;;
39324;SDS011;25037;49.488;9.900;2023-04-25T02:20:21;4.18;;;3.15;;
39324;SDS011;25037;49.488;9.900;2023-04-25T02:22:49;5.15;;;3.45;;
39324;SDS011;25037;49.488;9.900;2023-04-25T02:25:16;5.45;;;3.55;;
39324;SDS011;25037;49.488;9.900;2023-04-25T02:27:46;5.03;;;3.38;;
39324;SDS011;25037;49.488;9.900;2023-04-25T02:30:13;6.93;;;3.92;;
39324;SDS011;25037;49.488;9.900;2023-04-25T02:32:41;5.95;;;3.60;;
39324;SDS011;25037;49.488;9.900;2023-04-25T02:35:08;4.88;;;3.53;;
39324;SDS011;25037;49.488;9.900;2023-04-25T02:37:36;4.68;;;3.60;;
39324;SDS011;25037;49.488;9.900;2023-04-25T02:40:04;5.82;;;3.70;;
39324;SDS011;25037;49.488;9.900;2023-04-25T02:42:31;4.95;;;3.80;;
39324;SDS011;25037;49.488;9.900;2023-04-25T02:44:58;5.95;;;3.70;;
39324;SDS011;25037;49.488;9.900;2023-04-25T02:47:25;5.22;;;3.65;;
39324;SDS011;25037;49.488;9.900;2023-04-25T02:49:52;5.50;;;3.92;;
39324;SDS011;25037;49.488;9.900;2023-04-25T02:52:19;5.07;;;3.65;;
39324;SDS011;25037;49.488;9.900;2023-04-25T02:54:45;9.07;;;4.00;;
39324;SDS011;25037;49.488;9.900;2023-04-25T02:57:12;5.88;;;3.75;;
39324;SDS011;25037;49.488;9.900;2023-04-25T02:59:39;5.63;;;3.97;;
39324;SDS011;25037;49.488;9.900;2023-04-25T03:02:05;5.05;;;4.00;;
39324;SDS011;25037;49.488;9.900;2023-04-25T03:04:32;6.05;;;4.20;;
39324;SDS011;25037;49.488;9.900;2023-04-25T03:06:59;5.13;;;3.55;;
39324;SDS011;25037;49.488;9.900;2023-04-25T03:09:27;5.35;;;3.72;;
39324;SDS011;25037;49.488;9.900;2023-04-25T03:11:53;6.82;;;4.00;;
39324;SDS011;25037;49.488;9.900;2023-04-25T03:14:20;6.57;;;4.43;;
39324;SDS011;25037;49.488;9.900;2023-04-25T03:16:46;6.40;;;4.10;;
39324;SDS011;25037;49.488;9.900;2023-04-25T03:19:13;6.25;;;4.10;;
39324;SDS011;25037;49.488;9.900;2023-04-25T03:21:42;6.53;;;4.63;;
39324;SDS011;25037;49.488;9.900;2023-04-25T03:24:09;5.85;;;3.85;;
39324;SDS011;25037;49.488;9.900;2023-04-25T03:26:37;5.95;;;4.03;;
39324;SDS011;25037;49.488;9.900;2023-04-25T03:29:03;5.22;;;3.88;;
39324;SDS011;25037;49.488;9.900;2023-04-25T03:31:30;5.47;;;4.10;;
39324;SDS011;25037;49.488;9.900;2023-04-25T03:33:57;5.10;;;3.90;;
39324;SDS011;25037;49.488;9.900;2023-04-25T03:36:24;6.05;;;4.40;;
39324;SDS011;25037;49.488;9.900;2023-04-25T03:38:50;5.43;;;4.13;;
39324;SDS011;25037;49.488;9.900;2023-04-25T03:41:17;6.38;;;4.25;;
39324;SDS011;25037;49.488;9.900;2023-04-25T03:43:44;5.38;;;3.63;;
39324;SDS011;25037;49.488;9.900;2023-04-25T03:46:11;5.90;;;4.50;;
39324;SDS011;25037;49.488;9.900;2023-04-25T03:48:37;5.30;;;3.70;;
39324;SDS011;25037;49.488;9.900;2023-04-25T03:51:04;6.38;;;4.18;;
39324;SDS011;25037;49.488;9.900;2023-04-25T03:53:31;5.93;;;4.07;;
39324;SDS011;25037;49.488;9.900;2023-04-25T03:55:57;7.18;;;4.35;;
39324;SDS011;25037;49.488;9.900;2023-04-25T03:58:24;6.43;;;4.10;;
39324;SDS011;25037;49.488;9.900;2023-04-25T04:00:50;4.63;;;3.58;;
39324;SDS011;25037;49.488;9.900;2023-04-25T04:03:17;6.55;;;4.30;;
39324;SDS011;25037;49.488;9.900;2023-04-25T04:05:44;5.45;;;4.05;;
39324;SDS011;25037;49.488;9.900;2023-04-25T04:08:11;5.10;;;3.78;;
39324;SDS011;25037;49.488;9.900;2023-04-25T04:10:38;6.30;;;4.47;;
39324;SDS011;25037;49.488;9.900;2023-04-25T04:13:04;5.38;;;4.20;;
39324;SDS011;25037;49.488;9.900;2023-04-25T04:15:31;7.30;;;4.65;;
39324;SDS011;25037;49.488;9.900;2023-04-25T04:17:59;7.05;;;4.68;;
39324;SDS011;25037;49.488;9.900;2023-04-25T04:20:29;5.95;;;4.30;;
39324;SDS011;25037;49.488;9.900;2023-04-25T04:22:58;7.00;;;4.80;;
39324;SDS011;25037;49.488;9.900;2023-04-25T04:25:25;6.95;;;4.95;;
39324;SDS011;25037;49.488;9.900;2023-04-25T04:27:52;5.30;;;4.30;;
39324;SDS011;25037;49.488;9.900;2023-04-25T04:30:21;6.50;;;4.40;;
39324;SDS011;25037;49.488;9.900;2023-04-25T04:32:50;6.75;;;5.53;;
39324;SDS011;25037;49.488;9.900;2023-04-25T04:35:18;7.70;;;5.40;;
39324;SDS011;25037;49.488;9.900;2023-04-25T04:37:44;8.90;;;5.18;;
39324;SDS011;25037;49.488;9.900;2023-04-25T04:40:12;6.18;;;5.20;;
39324;SDS011;25037;49.488;9.900;2023-04-25T04:42:42;8.70;;;5.13;;
39324;SDS011;25037;49.488;9.900;2023-04-25T04:45:09;7.30;;;5.38;;
39324;SDS011;25037;49.488;9.900;2023-04-25T04:47:36;7.15;;;5.70;;
39324;SDS011;25037;49.488;9.900;2023-04-25T04:50:03;7.10;;;5.07;;
39324;SDS011;25037;49.488;9.900;2023-04-25T04:52:30;7.90;;;4.93;;
39324;SDS011;25037;49.488;9.900;2023-04-25T04:54:57;8.13;;;5.30;;
39324;SDS011;25037;49.488;9.900;2023-04-25T04:57:23;8.40;;;5.35;;
39324;SDS011;25037;49.488;9.900;2023-04-25T04:59:50;8.23;;;5.18;;
39324;SDS011;25037;49.488;9.900;2023-04-25T05:02:17;7.50;;;5.05;;
39324;SDS011;25037;49.488;9.900;2023-04-25T05:04:44;7.30;;;5.65;;
39324;SDS011;25037;49.488;9.900;2023-04-25T05:07:11;7.30;;;5.65;;
39324;SDS011;25037;49.488;9.900;2023-04-25T05:09:38;10.00;;;6.78;;
39324;SDS011;25037;49.488;9.900;2023-04-25T05:12:04;7.53;;;6.07;;
39324;SDS011;25037;49.488;9.900;2023-04-25T05:14:31;8.18;;;6.20;;
39324;SDS011;25037;49.488;9.900;2023-04-25T05:16:58;8.40;;;6.22;;
39324;SDS011;25037;49.488;9.900;2023-04-25T05:19:25;8.48;;;6.18;;
39324;SDS011;25037;49.488;9.900;2023-04-25T05:21:52;7.40;;;5.15;;
39324;SDS011;25037;49.488;9.900;2023-04-25T05:24:19;9.05;;;5.90;;
39324;SDS011;25037;49.488;9.900;2023-04-25T05:26:45;8.35;;;5.68;;
39324;SDS011;25037;49.488;9.900;2023-04-25T05:29:12;6.68;;;4.93;;
39324;SDS011;25037;49.488;9.900;2023-04-25T05:31:39;6.05;;;4.75;;
39324;SDS011;25037;49.488;9.900;2023-04-25T05:34:06;7.75;;;4.80;;
39324;SDS011;25037;49.488;9.900;2023-04-25T05:36:32;6.55;;;4.43;;
39324;SDS011;25037;49.488;9.900;2023-04-25T05:38:59;7.05;;;4.68;;
39324;SDS011;25037;49.488;9.900;2023-04-25T05:41:26;8.10;;;4.82;;
39324;SDS011;25037;49.488;9.900;2023-04-25T05:43:53;8.00;;;5.20;;
39324;SDS011;25037;49.488;9.900;2023-04-25T05:46:23;6.13;;;3.97;;
39324;SDS011;25037;49.488;9.900;2023-04-25T05:48:49;5.85;;;3.90;;
39324;SDS011;25037;49.488;9.900;2023-04-25T05:51:16;5.88;;;3.60;;
39324;SDS011;25037;49.488;9.900;2023-04-25T05:53:44;4.72;;;3.40;;
39324;SDS011;25037;49.488;9.900;2023-04-25T05:56:11;5.75;;;3.60;;
39324;SDS011;25037;49.488;9.900;2023-04-25T05:58:38;4.43;;;3.28;;
39324;SDS011;25037;49.488;9.900;2023-04-25T06:01:05;5.28;;;4.20;;
39324;SDS011;25037;49.488;9.900;2023-04-25T06:03:31;5.38;;;4.13;;
39324;SDS011;25037;49.488;9.900;2023-04-25T06:05:58;8.70;;;4.97;;
39324;SDS011;25037;49.488;9.900;2023-04-25T06:08:25;6.82;;;4.68;;
39324;SDS011;25037;49.488;9.900;2023-04-25T06:10:52;5.18;;;3.85;;
39324;SDS011;25037;49.488;9.900;2023-04-25T06:13:18;6.93;;;4.75;;
39324;SDS011;25037;49.488;9.900;2023-04-25T06:15:45;6.43;;;4.82;;
39324;SDS011;25037;49.488;9.900;2023-04-25T06:18:12;6.32;;;4.40;;
39324;SDS011;25037;49.488;9.900;2023-04-25T06:20:38;5.82;;;4.45;;
39324;SDS011;25037;49.488;9.900;2023-04-25T06:23:05;6.63;;;4.30;;
39324;SDS011;25037;49.488;9.900;2023-04-25T06:25:32;6.35;;;4.95;;
39324;SDS011;25037;49.488;9.900;2023-04-25T06:27:59;6.95;;;5.15;;
39324;SDS011;25037;49.488;9.900;2023-04-25T06:30:25;6.07;;;4.35;;
39324;SDS011;25037;49.488;9.900;2023-04-25T06:32:52;6.38;;;4.18;;
39324;SDS011;25037;49.488;9.900;2023-04-25T06:35:20;5.63;;;4.32;;
39324;SDS011;25037;49.488;9.900;2023-04-25T06:37:47;5.18;;;4.45;;
39324;SDS011;25037;49.488;9.900;2023-04-25T06:40:13;6.00;;;4.20;;
39324;SDS011;25037;49.488;9.900;2023-04-25T06:42:40;5.90;;;4.40;;
39324;SDS011;25037;49.488;9.900;2023-04-25T06:45:07;5.88;;;4.30;;
39324;SDS011;25037;49.488;9.900;2023-04-25T06:47:34;6.50;;;4.35;;
39324;SDS011;25037;49.488;9.900;2023-04-25T06:50:01;5.88;;;4.47;;
39324;SDS011;25037;49.488;9.900;2023-04-25T06:52:28;6.25;;;4.32;;
39324;SDS011;25037;49.488;9.900;2023-04-25T06:54:55;4.80;;;3.92;;
39324;SDS011;25037;49.488;9.900;2023-04-25T06:57:21;6.53;;;4.75;;
39324;SDS011;25037;49.488;9.900;2023-04-25T06:59:48;6.18;;;4.45;;
39324;SDS011;25037;49.488;9.900;2023-04-25T07:02:15;8.27;;;4.50;;
39324;SDS011;25037;49.488;9.900;2023-04-25T07:04:42;5.10;;;3.67;;
39324;SDS011;25037;49.488;9.900;2023-04-25T07:07:08;6.32;;;4.45;;
39324;SDS011;25037;49.488;9.900;2023-04-25T07:09:35;6.78;;;4.60;;
39324;SDS011;25037;49.488;9.900;2023-04-25T07:12:02;5.88;;;4.05;;
39324;SDS011;25037;49.488;9.900;2023-04-25T07:14:29;6.53;;;4.50;;
39324;SDS011;25037;49.488;9.900;2023-04-25T07:16:56;6.65;;;4.53;;
39324;SDS011;25037;49.488;9.900;2023-04-25T07:19:23;5.75;;;4.40;;
39324;SDS011;25037;49.488;9.900;2023-04-25T07:21:52;6.85;;;4.70;;
39324;SDS011;25037;49.488;9.900;2023-04-25T07:24:19;5.32;;;4.13;;
39324;SDS011;25037;49.488;9.900;2023-04-25T07:26:46;6.00;;;4.25;;
39324;SDS011;25037;49.488;9.900;2023-04-25T07:29:12;6.68;;;4.85;;
39324;SDS011;25037;49.488;9.900;2023-04-25T07:31:39;5.75;;;4.47;;
39324;SDS011;25037;49.488;9.900;2023-04-25T07:34:06;6.68;;;4.25;;
39324;SDS011;25037;49.488;9.900;2023-04-25T07:36:32;7.70;;;4.63;;
39324;SDS011;25037;49.488;9.900;2023-04-25T07:38:59;8.38;;;5.28;;
39324;SDS011;25037;49.488;9.900;2023-04-25T07:41:26;5.35;;;4.47;;
39324;SDS011;25037;49.488;9.900;2023-04-25T07:43:52;7.13;;;4.55;;
39324;SDS011;25037;49.488;9.900;2023-04-25T07:46:19;8.02;;;5.20;;
39324;SDS011;25037;49.488;9.900;2023-04-25T07:48:46;7.18;;;4.95;;
39324;SDS011;25037;49.488;9.900;2023-04-25T07:51:13;8.35;;;5.10;;
39324;SDS011;25037;49.488;9.900;2023-04-25T07:53:39;7.60;;;5.03;;
39324;SDS011;25037;49.488;9.900;2023-04-25T07:56:07;10.25;;;5.78;;
39324;SDS011;25037;49.488;9.900;2023-04-25T07:58:33;8.27;;;5.25;;
39324;SDS011;25037;49.488;9.900;2023-04-25T08:01:00;8.18;;;5.20;;
39324;SDS011;25037;49.488;9.900;2023-04-25T08:03:27;7.35;;;5.00;;
39324;SDS011;25037;49.488;9.900;2023-04-25T08:05:54;8.30;;;4.97;;
39324;SDS011;25037;49.488;9.900;2023-04-25T08:08:21;7.28;;;5.47;;
39324;SDS011;25037;49.488;9.900;2023-04-25T08:10:48;6.85;;;4.85;;
39324;SDS011;25037;49.488;9.900;2023-04-25T08:13:15;6.78;;;5.05;;
39324;SDS011;25037;49.488;9.900;2023-04-25T08:15:42;8.02;;;5.15;;
39324;SDS011;25037;49.488;9.900;2023-04-25T08:18:08;7.05;;;5.30;;
39324;SDS011;25037;49.488;9.900;2023-04-25T08:20:35;7.85;;;5.05;;
39324;SDS011;25037;49.488;9.900;2023-04-25T08:23:02;6.45;;;4.43;;
39324;SDS011;25037;49.488;9.900;2023-04-25T08:25:28;6.65;;;5.20;;
39324;SDS011;25037;49.488;9.900;2023-04-25T08:27:55;8.00;;;5.28;;
39324;SDS011;25037;49.488;9.900;2023-04-25T08:30:23;7.78;;;4.95;;
39324;SDS011;25037;49.488;9.900;2023-04-25T08:32:49;6.30;;;4.90;;
39324;SDS011;25037;49.488;9.900;2023-04-25T08:35:16;6.97;;;4.50;;
39324;SDS011;25037;49.488;9.900;2023-04-25T08:37:43;5.57;;;4.57;;
39324;SDS011;25037;49.488;9.900;2023-04-25T08:40:11;8.07;;;4.55;;
39324;SDS011;25037;49.488;9.900;2023-04-25T08:42:41;4.82;;;3.70;;
39324;SDS011;25037;49.488;9.900;2023-04-25T08:45:08;7.75;;;3.47;;
39324;SDS011;25037;49.488;9.900;2023-04-25T08:47:35;6.45;;;3.63;;
39324;SDS011;25037;49.488;9.900;2023-04-25T08:50:05;5.68;;;3.15;;
39324;SDS011;25037;49.488;9.900;2023-04-25T08:52:36;6.20;;;3.60;;
39324;SDS011;25037;49.488;9.900;2023-04-25T08:55:06;6.85;;;3.15;;
39324;SDS011;25037;49.488;9.900;2023-04-25T08:57:35;4.40;;;3.08;;
39324;SDS011;25037;49.488;9.900;2023-04-25T09:00:03;4.72;;;2.50;;
39324;SDS011;25037;49.488;9.900;2023-04-25T09:02:30;4.32;;;2.53;;
39324;SDS011;25037;49.488;9.900;2023-04-25T09:04:57;4.60;;;2.75;;
39324;SDS011;25037;49.488;9.900;2023-04-25T09:07:25;3.50;;;2.10;;
39324;SDS011;25037;49.488;9.900;2023-04-25T09:09:52;4.03;;;2.40;;
39324;SDS011;25037;49.488;9.900;2023-04-25T09:12:18;3.58;;;2.55;;
39324;SDS011;25037;49.488;9.900;2023-04-25T09:15:03;3.08;;;2.13;;
39324;SDS011;25037;49.488;9.900;2023-04-25T09:17:34;4.60;;;2.35;;
39324;SDS011;25037;49.488;9.900;2023-04-25T09:20:12;4.05;;;2.20;;
39324;SDS011;25037;49.488;9.900;2023-04-25T09:22:40;4.68;;;2.40;;
39324;SDS011;25037;49.488;9.900;2023-04-25T09:25:08;6.63;;;2.42;;
39324;SDS011;25037;49.488;9.900;2023-04-25T09:27:51;3.95;;;2.47;;
39324;SDS011;25037;49.488;9.900;2023-04-25T09:30:34;5.03;;;2.33;;
39324;SDS011;25037;49.488;9.900;2023-04-25T09:33:09;4.75;;;2.20;;
39324;SDS011;25037;49.488;9.900;2023-04-25T09:35:37;3.15;;;1.58;;
39324;SDS011;25037;49.488;9.900;2023-04-25T09:38:08;3.40;;;1.88;;
39324;SDS011;25037;49.488;9.900;2023-04-25T09:40:43;3.38;;;1.88;;
39324;SDS011;25037;49.488;9.900;2023-04-25T09:43:21;3.43;;;1.80;;
39324;SDS011;25037;49.488;9.900;2023-04-25T09:45:49;4.43;;;2.05;;
39324;SDS011;25037;49.488;9.900;2023-04-25T09:48:18;3.83;;;1.67;;
39324;SDS011;25037;49.488;9.900;2023-04-25T09:51:07;2.92;;;1.80;;
39324;SDS011;25037;49.488;9.900;2023-04-25T09:53:38;3.45;;;1.35;;
39324;SDS011;25037;49.488;9.900;2023-04-25T09:56:10;7.38;;;3.20;;
39324;SDS011;25037;49.488;9.900;2023-04-25T09:58:38;5.75;;;2.20;;
39324;SDS011;25037;49.488;9.900;2023-04-25T10:01:06;4.38;;;1.40;;
39324;SDS011;25037;49.488;9.900;2023-04-25T10:03:35;3.97;;;1.63;;
39324;SDS011;25037;49.488;9.900;2023-04-25T10:06:12;4.07;;;1.60;;
39324;SDS011;25037;49.488;9.900;2023-04-25T10:08:44;2.35;;;1.38;;
39324;SDS011;25037;49.488;9.900;2023-04-25T10:11:13;4.20;;;1.73;;
39324;SDS011;25037;49.488;9.900;2023-04-25T10:13:42;4.40;;;1.80;;
39324;SDS011;25037;49.488;9.900;2023-04-25T10:16:10;3.90;;;1.60;;
39324;SDS011;25037;49.488;9.900;2023-04-25T10:18:37;4.40;;;1.90;;
39324;SDS011;25037;49.488;9.900;2023-04-25T10:21:05;4.90;;;1.60;;
39324;SDS011;25037;49.488;9.900;2023-04-25T10:23:32;3.85;;;1.50;;
39324;SDS011;25037;49.488;9.900;2023-04-25T10:26:00;5.47;;;1.65;;
39324;SDS011;25037;49.488;9.900;2023-04-25T10:28:28;3.10;;;1.73;;
39324;SDS011;25037;49.488;9.900;2023-04-25T10:33:29;4.13;;;1.77;;
39324;SDS011;25037;49.488;9.900;2023-04-25T10:36:12;3.13;;;1.67;;
39324;SDS011;25037;49.488;9.900;2023-04-25T10:38:45;3.10;;;1.60;;
39324;SDS011;25037;49.488;9.900;2023-04-25T10:41:12;4.15;;;1.90;;
39324;SDS011;25037;49.488;9.900;2023-04-25T10:43:40;2.92;;;1.77;;
39324;SDS011;25037;49.488;9.900;2023-04-25T10:46:17;5.10;;;1.70;;
39324;SDS011;25037;49.488;9.900;2023-04-25T10:48:46;3.88;;;1.85;;
39324;SDS011;25037;49.488;9.900;2023-04-25T10:51:22;3.70;;;1.70;;
39324;SDS011;25037;49.488;9.900;2023-04-25T10:54:08;3.40;;;1.80;;
39324;SDS011;25037;49.488;9.900;2023-04-25T10:59:12;5.82;;;2.03;;
39324;SDS011;25037;49.488;9.900;2023-04-25T11:01:43;4.20;;;1.83;;
39324;SDS011;25037;49.488;9.900;2023-04-25T11:04:21;4.00;;;1.70;;
39324;SDS011;25037;49.488;9.900;2023-04-25T11:09:34;3.05;;;1.63;;
39324;SDS011;25037;49.488;9.900;2023-04-25T11:12:02;3.85;;;1.52;;
39324;SDS011;25037;49.488;9.900;2023-04-25T11:14:29;4.18;;;1.73;;
39324;SDS011;25037;49.488;9.900;2023-04-25T11:16:56;3.08;;;1.35;;
39324;SDS011;25037;49.488;9.900;2023-04-25T11:19:26;4.20;;;1.67;;
39324;SDS011;25037;49.488;9.900;2023-04-25T11:21:57;3.55;;;1.83;;
39324;SDS011;25037;49.488;9.900;2023-04-25T11:24:31;2.65;;;1.30;;
39324;SDS011;25037;49.488;9.900;2023-04-25T11:27:01;4.10;;;1.70;;
39324;SDS011;25037;49.488;9.900;2023-04-25T11:29:30;3.83;;;1.83;;
39324;SDS011;25037;49.488;9.900;2023-04-25T11:31:58;4.82;;;1.70;;
39324;SDS011;25037;49.488;9.900;2023-04-25T11:34:27;3.30;;;1.50;;
39324;SDS011;25037;49.488;9.900;2023-04-25T11:36:59;4.25;;;2.53;;
39324;SDS011;25037;49.488;9.900;2023-04-25T11:39:28;3.88;;;1.90;;
39324;SDS011;25037;49.488;9.900;2023-04-25T11:41:55;6.28;;;1.85;;
39324;SDS011;25037;49.488;9.900;2023-04-25T11:44:22;4.47;;;1.98;;
39324;SDS011;25037;49.488;9.900;2023-04-25T11:46:49;3.67;;;2.15;;
39324;SDS011;25037;49.488;9.900;2023-04-25T11:49:15;5.45;;;2.10;;
39324;SDS011;25037;49.488;9.900;2023-04-25T11:51:45;8.60;;;2.40;;
39324;SDS011;25037;49.488;9.900;2023-04-25T11:54:13;5.40;;;2.17;;
39324;SDS011;25037;49.488;9.900;2023-04-25T11:56:41;3.83;;;1.92;;
39324;SDS011;25037;49.488;9.900;2023-04-25T11:59:11;3.30;;;2.03;;
39324;SDS011;25037;49.488;9.900;2023-04-25T12:01:40;4.13;;;2.33;;
39324;SDS011;25037;49.488;9.900;2023-04-25T12:04:16;4.72;;;2.00;;
39324;SDS011;25037;49.488;9.900;2023-04-25T12:06:49;5.25;;;2.42;;
39324;SDS011;25037;49.488;9.900;2023-04-25T12:09:19;3.53;;;1.90;;
39324;SDS011;25037;49.488;9.900;2023-04-25T12:11:48;4.50;;;2.58;;
39324;SDS011;25037;49.488;9.900;2023-04-25T12:14:29;3.72;;;1.90;;
39324;SDS011;25037;49.488;9.900;2023-04-25T12:17:01;4.93;;;2.00;;
39324;SDS011;25037;49.488;9.900;2023-04-25T12:19:32;4.45;;;2.30;;
39324;SDS011;25037;49.488;9.900;2023-04-25T12:22:01;4.47;;;1.80;;
39324;SDS011;25037;49.488;9.900;2023-04-25T12:24:29;5.30;;;1.90;;
39324;SDS011;25037;49.488;9.900;2023-04-25T12:27:05;4.63;;;1.70;;
39324;SDS011;25037;49.488;9.900;2023-04-25T12:29:34;4.63;;;2.08;;
39324;SDS011;25037;49.488;9.900;2023-04-25T12:32:15;6.65;;;2.08;;
39324;SDS011;25037;49.488;9.900;2023-04-25T12:34:42;4.30;;;1.88;;
39324;SDS011;25037;49.488;9.900;2023-04-25T12:37:09;3.80;;;1.95;;
39324;SDS011;25037;49.488;9.900;2023-04-25T12:39:37;3.45;;;2.03;;
39324;SDS011;25037;49.488;9.900;2023-04-25T12:42:04;6.10;;;2.28;;
39324;SDS011;25037;49.488;9.900;2023-04-25T12:44:34;3.85;;;2.22;;
39324;SDS011;25037;49.488;9.900;2023-04-25T12:47:01;3.65;;;1.90;;
39324;SDS011;25037;49.488;9.900;2023-04-25T12:49:29;3.17;;;1.77;;
39324;SDS011;25037;49.488;9.900;2023-04-25T12:51:56;4.68;;;2.33;;
39324;SDS011;25037;49.488;9.900;2023-04-25T12:54:22;4.10;;;2.25;;
39324;SDS011;25037;49.488;9.900;2023-04-25T12:56:50;5.00;;;1.92;;
39324;SDS011;25037;49.488;9.900;2023-04-25T12:59:17;4.43;;;2.15;;
39324;SDS011;25037;49.488;9.900;2023-04-25T13:01:44;5.55;;;2.53;;
39324;SDS011;25037;49.488;9.900;2023-04-25T13:04:11;5.45;;;2.00;;
39324;SDS011;25037;49.488;9.900;2023-04-25T13:06:38;5.93;;;2.45;;
39324;SDS011;25037;49.488;9.900;2023-04-25T13:09:05;4.32;;;2.33;;
39324;SDS011;25037;49.488;9.900;2023-04-25T13:11:32;5.88;;;2.40;;
39324;SDS011;25037;49.488;9.900;2023-04-25T13:14:00;6.88;;;2.35;;
39324;SDS011;25037;49.488;9.900;2023-04-25T13:16:27;5.00;;;1.92;;
39324;SDS011;25037;49.488;9.900;2023-04-25T13:18:54;4.20;;;2.60;;
39324;SDS011;25037;49.488;9.900;2023-04-25T13:21:22;3.90;;;2.30;;
39324;SDS011;25037;49.488;9.900;2023-04-25T13:23:49;3.78;;;2.28;;
39324;SDS011;25037;49.488;9.900;2023-04-25T13:26:16;4.65;;;2.28;;
39324;SDS011;25037;49.488;9.900;2023-04-25T13:28:43;4.68;;;2.47;;
39324;SDS011;25037;49.488;9.900;2023-04-25T13:31:10;6.50;;;2.70;;
39324;SDS011;25037;49.488;9.900;2023-04-25T13:33:37;4.43;;;2.63;;
39324;SDS011;25037;49.488;9.900;2023-04-25T13:36:04;6.30;;;2.63;;
39324;SDS011;25037;49.488;9.900;2023-04-25T13:38:31;5.20;;;2.60;;
39324;SDS011;25037;49.488;9.900;2023-04-25T13:40:58;5.40;;;2.50;;
39324;SDS011;25037;49.488;9.900;2023-04-25T13:43:24;4.43;;;2.30;;
39324;SDS011;25037;49.488;9.900;2023-04-25T13:45:51;5.43;;;2.47;;
39324;SDS011;25037;49.488;9.900;2023-04-25T13:48:18;5.15;;;2.42;;
39324;SDS011;25037;49.488;9.900;2023-04-25T13:50:45;6.93;;;2.97;;
39324;SDS011;25037;49.488;9.900;2023-04-25T13:53:12;6.80;;;2.38;;
39324;SDS011;25037;49.488;9.900;2023-04-25T13:55:39;5.80;;;2.38;;
39324;SDS011;25037;49.488;9.900;2023-04-25T13:58:06;6.63;;;3.33;;
39324;SDS011;25037;49.488;9.900;2023-04-25T14:00:36;5.25;;;2.15;;
39324;SDS011;25037;49.488;9.900;2023-04-25T14:03:05;5.22;;;2.35;;
39324;SDS011;25037;49.488;9.900;2023-04-25T14:05:35;4.55;;;3.05;;
39324;SDS011;25037;49.488;9.900;2023-04-25T14:08:06;4.65;;;2.40;;
39324;SDS011;25037;49.488;9.900;2023-04-25T14:10:35;5.82;;;2.75;;
39324;SDS011;25037;49.488;9.900;2023-04-25T14:13:02;4.63;;;2.80;;
39324;SDS011;25037;49.488;9.900;2023-04-25T14:15:33;4.20;;;2.58;;
39324;SDS011;25037;49.488;9.900;2023-04-25T14:18:01;4.82;;;2.70;;
39324;SDS011;25037;49.488;9.900;2023-04-25T14:20:28;5.72;;;2.65;;
39324;SDS011;25037;49.488;9.900;2023-04-25T14:22:55;3.58;;;2.45;;
39324;SDS011;25037;49.488;9.900;2023-04-25T14:25:24;6.47;;;3.50;;
39324;SDS011;25037;49.488;9.900;2023-04-25T14:27:51;3.53;;;2.80;;
39324;SDS011;25037;49.488;9.900;2023-04-25T14:30:18;6.55;;;2.95;;
39324;SDS011;25037;49.488;9.900;2023-04-25T14:32:46;5.18;;;2.80;;
39324;SDS011;25037;49.488;9.900;2023-04-25T14:35:14;4.97;;;2.92;;
39324;SDS011;25037;49.488;9.900;2023-04-25T14:37:41;5.60;;;2.67;;
39324;SDS011;25037;49.488;9.900;2023-04-25T14:40:08;5.50;;;3.65;;
39324;SDS011;25037;49.488;9.900;2023-04-25T14:42:36;4.35;;;2.80;;
39324;SDS011;25037;49.488;9.900;2023-04-25T14:45:04;4.75;;;2.67;;
39324;SDS011;25037;49.488;9.900;2023-04-25T14:47:32;5.10;;;2.97;;
39324;SDS011;25037;49.488;9.900;2023-04-25T14:50:00;6.32;;;3.00;;
39324;SDS011;25037;49.488;9.900;2023-04-25T14:52:27;5.05;;;2.70;;
39324;SDS011;25037;49.488;9.900;2023-04-25T14:54:54;6.18;;;2.47;;
39324;SDS011;25037;49.488;9.900;2023-04-25T14:57:21;6.80;;;2.90;;
39324;SDS011;25037;49.488;9.900;2023-04-25T14:59:48;4.25;;;3.10;;